TimeCST,TemperatureF,Dew PointF,Humidity,Sea Level PressureIn,VisibilityMPH,Wind Direction,Wind SpeedMPH,Gust SpeedMPH,PrecipitationIn,Events,Conditions,WindDirDegrees,DateUTC
12:14 AM,5.0,1.4,85,30.07,10.0,NW,8.1,-,N/A,,Clear,310,2013-01-06 06:14:00
12:33 AM,3.2,-0.4,85,30.07,10.0,WNW,9.2,-,N/A,,Clear,300,2013-01-06 06:33:00
12:53 AM,5.0,1.4,85,30.07,10.0,WNW,11.5,-,N/A,,Clear,300,2013-01-06 06:53:00
1:14 AM,5.0,1.4,85,30.07,10.0,WNW,10.4,-,N/A,,Clear,300,2013-01-06 07:14:00
1:33 AM,5.0,1.4,85,30.07,10.0,WNW,13.8,-,N/A,,Clear,300,2013-01-06 07:33:00
1:53 AM,5.0,1.4,85,30.09,10.0,NW,9.2,-,N/A,,Scattered Clouds,320,2013-01-06 07:53:00
2:14 AM,6.8,6.8,100,30.09,10.0,NW,10.4,-,N/A,Snow,Light Snow,310,2013-01-06 08:14:00
2:33 AM,8.6,6.8,92,30.08,10.0,WNW,6.9,-,N/A,,Overcast,300,2013-01-06 08:33:00
2:53 AM,8.6,6.8,92,30.10,10.0,NW,8.1,-,N/A,,Overcast,310,2013-01-06 08:53:00
3:14 AM,10.4,8.6,92,30.11,10.0,NW,9.2,-,N/A,,Overcast,310,2013-01-06 09:14:00
3:33 AM,10.4,8.6,92,30.10,10.0,NNW,9.2,-,N/A,,Overcast,330,2013-01-06 09:33:00
3:53 AM,10.4,8.6,92,30.10,10.0,WNW,6.9,-,N/A,,Overcast,290,2013-01-06 09:53:00
4:14 AM,10.4,8.6,92,30.10,10.0,West,8.1,-,N/A,,Overcast,280,2013-01-06 10:14:00
4:33 AM,10.4,8.6,92,30.09,10.0,West,6.9,-,N/A,,Overcast,260,2013-01-06 10:33:00
4:53 AM,10.4,8.6,92,30.08,10.0,WSW,11.5,-,N/A,,Overcast,250,2013-01-06 10:53:00
5:14 AM,10.4,8.6,92,30.10,10.0,Calm,Calm,-,N/A,,Overcast,0,2013-01-06 11:14:00
5:33 AM,12.2,10.4,92,30.11,10.0,NNW,3.5,-,N/A,,Overcast,340,2013-01-06 11:33:00
5:53 AM,12.2,10.4,92,30.13,7.0,NW,5.8,-,N/A,,Overcast,320,2013-01-06 11:53:00
6:13 AM,12.2,12.2,100,30.13,2.5,NNW,4.6,-,N/A,,Overcast,330,2013-01-06 12:13:00
6:33 AM,12.2,12.2,100,30.14,2.0,NW,4.6,-,N/A,,Overcast,320,2013-01-06 12:33:00
6:54 AM,14.0,12.2,93,30.15,7.0,NNW,4.6,-,N/A,,Overcast,330,2013-01-06 12:54:00
7:13 AM,14.0,12.2,93,30.14,7.0,NW,5.8,-,N/A,,Overcast,320,2013-01-06 13:13:00
7:33 AM,14.0,12.2,93,30.15,7.0,NW,9.2,-,N/A,,Overcast,310,2013-01-06 13:33:00
7:54 AM,14.0,12.2,93,30.15,7.0,NW,4.6,-,N/A,Snow,Light Snow,310,2013-01-06 13:54:00
8:13 AM,14.0,12.2,93,30.15,4.0,NW,4.6,-,N/A,Snow,Light Snow,310,2013-01-06 14:13:00
8:33 AM,14.0,12.2,93,30.15,3.0,Calm,Calm,-,N/A,Snow,Light Snow,0,2013-01-06 14:33:00
8:53 AM,14.0,12.2,93,30.15,1.8,Calm,Calm,-,N/A,Snow,Light Snow,0,2013-01-06 14:53:00
9:33 AM,14.0,12.2,93,30.16,1.2,Calm,Calm,-,N/A,Snow,Light Snow,0,2013-01-06 15:33:00
9:53 AM,14.0,12.2,93,30.16,1.0,Calm,Calm,-,N/A,Snow,Light Snow,0,2013-01-06 15:53:00
10:13 AM,14.0,12.2,93,30.17,1.2,Calm,Calm,-,N/A,Snow,Light Snow,0,2013-01-06 16:13:00
10:34 AM,14.0,12.2,93,30.18,1.2,Calm,Calm,-,N/A,Snow,Light Snow,0,2013-01-06 16:34:00
10:53 AM,14.0,12.2,93,30.19,1.8,SSW,3.5,-,N/A,Snow,Light Snow,200,2013-01-06 16:53:00
11:13 AM,14.0,12.2,93,30.17,1.5,South,3.5,-,N/A,Snow,Light Snow,190,2013-01-06 17:13:00
11:34 AM,14.0,12.2,93,30.17,2.0,South,4.6,-,N/A,Snow,Light Snow,170,2013-01-06 17:34:00
11:53 AM,14.0,12.2,93,30.17,3.0,South,4.6,-,N/A,Snow,Light Snow,190,2013-01-06 17:53:00
12:13 PM,12.2,12.2,100,30.16,4.0,South,6.9,-,N/A,Snow,Light Snow,180,2013-01-06 18:13:00
12:34 PM,14.0,12.2,93,30.15,4.0,South,6.9,-,N/A,Snow,Light Snow,180,2013-01-06 18:34:00
12:53 PM,14.0,12.2,93,30.14,4.0,South,5.8,-,N/A,Snow,Light Snow,190,2013-01-06 18:53:00
1:13 PM,14.0,12.2,93,30.14,4.0,South,8.1,-,N/A,,Overcast,180,2013-01-06 19:13:00
1:34 PM,14.0,12.2,93,30.12,4.0,South,6.9,-,N/A,,Mist,180,2013-01-06 19:34:00
1:53 PM,14.0,12.2,93,30.13,5.0,South,5.8,-,N/A,,Overcast,180,2013-01-06 19:53:00
2:13 PM,14.0,12.2,93,30.12,7.0,South,10.4,-,N/A,,Unknown,180,2013-01-06 20:13:00
2:53 PM,12.2,10.4,92,30.11,2.5,SSE,10.4,-,N/A,,Overcast,160,2013-01-06 20:53:00
3:13 PM,12.2,10.4,92,30.11,4.0,South,8.1,-,N/A,,Overcast,170,2013-01-06 21:13:00
3:33 PM,12.2,10.4,92,30.10,5.0,SSE,5.8,-,N/A,,Scattered Clouds,150,2013-01-06 21:33:00
3:53 PM,12.2,10.4,92,30.11,5.0,South,4.6,-,N/A,,Clear,170,2013-01-06 21:53:00
4:13 PM,10.4,8.6,92,30.10,5.0,SSE,6.9,-,N/A,,Clear,160,2013-01-06 22:13:00
4:53 PM,8.6,6.8,92,30.09,5.0,SE,6.9,-,N/A,,Clear,140,2013-01-06 22:53:00
5:13 PM,8.6,6.8,92,30.09,7.0,South,6.9,-,N/A,,Clear,170,2013-01-06 23:13:00
5:33 PM,8.6,6.8,92,30.09,7.0,South,4.6,-,N/A,,Clear,170,2013-01-06 23:33:00
5:53 PM,8.6,6.8,92,30.07,7.0,SSE,9.2,-,N/A,,Clear,150,2013-01-06 23:53:00
6:14 PM,8.6,6.8,92,30.06,7.0,SSE,10.4,-,N/A,,Clear,150,2013-01-07 00:14:00
6:33 PM,8.6,6.8,92,30.05,7.0,SSE,9.2,-,N/A,,Clear,150,2013-01-07 00:33:00
6:53 PM,8.6,6.8,92,30.03,7.0,SE,10.4,-,N/A,,Clear,140,2013-01-07 00:53:00
7:33 PM,8.6,6.8,92,30.00,7.0,SE,8.1,-,N/A,,Clear,130,2013-01-07 01:33:00
7:53 PM,8.6,6.8,92,29.98,7.0,SE,6.9,-,N/A,,Clear,130,2013-01-07 01:53:00
8:14 PM,10.4,8.6,92,29.96,10.0,ESE,8.1,-,N/A,,Clear,120,2013-01-07 02:14:00
8:53 PM,12.2,10.4,92,29.93,10.0,SSE,17.3,-,N/A,,Clear,150,2013-01-07 02:53:00
9:33 PM,14.0,12.2,93,29.91,10.0,SSE,15.0,-,N/A,,Clear,150,2013-01-07 03:33:00
9:53 PM,15.8,14.0,93,29.89,10.0,SSE,13.8,-,N/A,,Clear,150,2013-01-07 03:53:00
10:13 PM,17.6,15.8,93,29.88,10.0,SSE,12.7,-,N/A,,Clear,150,2013-01-07 04:13:00
10:33 PM,19.4,17.6,93,29.87,10.0,SSE,15.0,20.7,N/A,,Clear,160,2013-01-07 04:33:00
10:54 PM,19.4,15.8,86,29.86,10.0,SSE,15.0,-,N/A,,Clear,160,2013-01-07 04:54:00
11:33 PM,19.4,15.8,86,29.84,10.0,South,11.5,-,N/A,,Clear,170,2013-01-07 05:33:00
11:53 PM,19.4,15.8,86,29.84,10.0,South,15.0,-,N/A,,Clear,170,2013-01-07 05:53:00